Time,TemperatureF,DewpointF,PressureIn,WindDirection,WindDirectionDegrees,WindSpeedMPH,WindSpeedGustMPH,Humidity,HourlyPrecipIn,Conditions,Clouds,dailyrainin,SoftwareType,DateUTC
2013-04-21 00:11:00,44.7,44.0,30.26,ENE,72,0.0,0.0,97,0.00,,,0.00,weatherlink.com 1.10,2013-04-21 04:11:00,
2013-04-21 00:25:00,44.6,44.0,30.26,ENE,72,0.0,1.0,97,0.00,,,0.00,weatherlink.com 1.10,2013-04-21 04:25:00,
2013-04-21 00:41:00,44.5,44.0,30.26,ENE,72,0.0,1.0,98,0.00,,,0.00,weatherlink.com 1.10,2013-04-21 04:41:00,
2013-04-21 00:56:00,44.3,44.0,30.26,ENE,72,0.0,0.0,98,0.00,,,0.00,weatherlink.com 1.10,2013-04-21 04:56:00,
2013-04-21 01:11:00,44.3,44.0,30.26,SW,231,0.0,1.0,98,0.00,,,0.00,weatherlink.com 1.10,2013-04-21 05:11:00,
2013-04-21 01:26:00,44.1,44.0,30.26,SW,231,0.0,1.0,98,0.00,,,0.00,weatherlink.com 1.10,2013-04-21 05:26:00,
2013-04-21 01:41:00,44.1,44.0,30.27,SW,231,0.0,1.0,98,0.00,,,0.00,weatherlink.com 1.10,2013-04-21 05:41:00,
2013-04-21 01:56:00,44.1,44.0,30.27,SW,231,0.0,1.0,98,0.00,,,0.00,weatherlink.com 1.10,2013-04-21 05:56:00,
2013-04-21 02:11:00,44.0,44.0,30.26,SW,231,0.0,1.0,98,0.01,,,0.01,weatherlink.com 1.10,2013-04-21 06:11:00,
2013-04-21 02:26:00,43.9,43.0,30.26,SW,231,0.0,1.0,98,0.01,,,0.01,weatherlink.com 1.10,2013-04-21 06:26:00,
2013-04-21 02:41:00,43.8,43.0,30.26,WSW,243,0.0,1.0,98,0.01,,,0.01,weatherlink.com 1.10,2013-04-21 06:41:00,
2013-04-21 02:56:00,43.8,43.0,30.27,West,272,0.0,1.0,98,0.01,,,0.01,weatherlink.com 1.10,2013-04-21 06:56:00,
2013-04-21 03:11:00,43.6,43.0,30.26,West,270,0.0,0.0,98,0.00,,,0.01,weatherlink.com 1.10,2013-04-21 07:11:00,
2013-04-21 03:26:00,43.5,43.0,30.26,West,270,0.0,1.0,98,0.00,,,0.01,weatherlink.com 1.10,2013-04-21 07:26:00,
2013-04-21 03:41:00,43.6,43.0,30.27,West,270,0.0,1.0,98,0.00,,,0.01,weatherlink.com 1.10,2013-04-21 07:41:00,
2013-04-21 03:56:00,43.4,43.0,30.27,West,263,0.0,1.0,98,0.00,,,0.01,weatherlink.com 1.10,2013-04-21 07:56:00,
2013-04-21 04:11:00,43.3,43.0,30.27,West,262,0.0,0.0,98,0.00,,,0.01,weatherlink.com 1.10,2013-04-21 08:11:00,
2013-04-21 04:26:00,43.2,43.0,30.26,West,259,0.0,1.0,99,0.00,,,0.01,weatherlink.com 1.10,2013-04-21 08:26:00,
2013-04-21 04:41:00,43.2,43.0,30.27,West,259,0.0,0.0,99,0.00,,,0.01,weatherlink.com 1.10,2013-04-21 08:41:00,
2013-04-21 04:56:00,43.0,43.0,30.27,West,259,0.0,0.0,99,0.00,,,0.01,weatherlink.com 1.10,2013-04-21 08:56:00,
2013-04-21 05:11:00,43.0,43.0,30.27,SW,233,0.0,1.0,99,0.00,,,0.01,weatherlink.com 1.10,2013-04-21 09:11:00,
2013-04-21 05:26:00,42.9,43.0,30.28,WSW,241,0.0,1.0,99,0.00,,,0.01,weatherlink.com 1.10,2013-04-21 09:26:00,
2013-04-21 05:41:00,42.7,43.0,30.28,WSW,240,0.0,1.0,99,0.00,,,0.01,weatherlink.com 1.10,2013-04-21 09:41:00,
2013-04-21 05:56:00,42.7,43.0,30.29,WSW,253,1.0,1.0,99,0.00,,,0.01,weatherlink.com 1.10,2013-04-21 09:56:00,
2013-04-21 06:11:00,42.8,43.0,30.29,WSW,252,0.0,1.0,99,0.00,,,0.01,weatherlink.com 1.10,2013-04-21 10:11:00,
2013-04-21 06:26:00,42.7,43.0,30.30,WSW,250,0.0,0.0,99,0.00,,,0.01,weatherlink.com 1.10,2013-04-21 10:26:00,
2013-04-21 06:41:00,42.9,43.0,30.31,West,280,0.0,1.0,99,0.00,,,0.01,weatherlink.com 1.10,2013-04-21 10:41:00,
2013-04-21 06:56:00,43.3,43.0,30.32,WNW,284,0.0,1.0,99,0.00,,,0.01,weatherlink.com 1.10,2013-04-21 10:56:00,
2013-04-21 07:11:00,44.1,44.0,30.32,WNW,291,0.0,1.0,99,0.00,,,0.01,weatherlink.com 1.10,2013-04-21 11:11:00,
2013-04-21 07:26:00,44.9,45.0,30.32,NW,316,0.0,1.0,99,0.00,,,0.01,weatherlink.com 1.10,2013-04-21 11:26:00,
2013-04-21 07:41:00,46.6,46.0,30.33,SSE,162,0.0,1.0,99,0.00,,,0.01,weatherlink.com 1.10,2013-04-21 11:41:00,
2013-04-21 07:56:00,49.1,49.0,30.34,WSW,250,0.0,3.0,99,0.00,,,0.01,weatherlink.com 1.10,2013-04-21 11:56:00,
2013-04-21 08:11:00,51.6,51.0,30.34,WNW,283,0.0,3.0,99,0.00,,,0.01,weatherlink.com 1.10,2013-04-21 12:11:00,
2013-04-21 08:26:00,54.4,54.0,30.34,East,80,1.0,6.0,97,0.00,,,0.01,weatherlink.com 1.10,2013-04-21 12:26:00,
2013-04-21 08:42:00,57.1,53.0,30.34,ENE,78,4.0,8.0,86,0.00,,,0.01,weatherlink.com 1.10,2013-04-21 12:42:00,
2013-04-21 08:57:00,58.3,53.0,30.34,East,94,3.0,12.0,81,0.00,,,0.01,weatherlink.com 1.10,2013-04-21 12:57:00,
2013-04-21 09:12:00,58.9,52.0,30.35,East,98,2.0,10.0,79,0.00,,,0.01,weatherlink.com 1.10,2013-04-21 13:12:00,
2013-04-21 09:27:00,59.2,53.0,30.35,East,89,7.0,12.0,80,0.00,,,0.01,weatherlink.com 1.10,2013-04-21 13:27:00,
2013-04-21 09:42:00,59.8,53.0,30.35,SE,142,8.0,14.0,79,0.00,,,0.01,weatherlink.com 1.10,2013-04-21 13:42:00,
2013-04-21 09:57:00,60.6,52.0,30.35,East,82,7.0,14.0,74,0.00,,,0.01,weatherlink.com 1.10,2013-04-21 13:57:00,
2013-04-21 10:12:00,60.9,51.0,30.36,East,95,8.0,12.0,70,0.00,,,0.01,weatherlink.com 1.10,2013-04-21 14:12:00,
2013-04-21 10:27:00,61.2,52.0,30.36,ESE,122,9.0,12.0,71,0.00,,,0.01,weatherlink.com 1.10,2013-04-21 14:27:00,
2013-04-21 10:42:00,60.9,51.0,30.37,WNW,287,5.0,24.0,69,0.00,,,0.01,weatherlink.com 1.10,2013-04-21 14:42:00,
2013-04-21 10:57:00,61.2,50.0,30.37,ESE,109,9.0,19.0,68,0.00,,,0.01,weatherlink.com 1.10,2013-04-21 14:57:00,
2013-04-21 11:12:00,61.2,51.0,30.37,NNE,29,2.0,20.0,69,0.00,,,0.01,weatherlink.com 1.10,2013-04-21 15:12:00,
2013-04-21 11:27:00,61.5,51.0,30.38,East,92,10.0,19.0,68,0.00,,,0.01,weatherlink.com 1.10,2013-04-21 15:27:00,
2013-04-21 11:42:00,62.2,52.0,30.38,NNE,27,7.0,16.0,69,0.00,,,0.01,weatherlink.com 1.10,2013-04-21 15:42:00,
2013-04-21 11:57:00,62.8,51.0,30.38,ENE,69,6.0,17.0,65,0.00,,,0.01,weatherlink.com 1.10,2013-04-21 15:57:00,
2013-04-21 12:12:00,63.0,50.0,30.39,East,84,16.0,23.0,63,0.00,,,0.01,weatherlink.com 1.10,2013-04-21 16:12:00,
2013-04-21 12:27:00,62.3,50.0,30.38,ENE,78,9.0,23.0,64,0.00,,,0.01,weatherlink.com 1.10,2013-04-21 16:27:00,
2013-04-21 12:42:00,62.5,50.0,30.38,East,79,3.0,18.0,64,0.00,,,0.01,weatherlink.com 1.10,2013-04-21 16:42:00,
2013-04-21 12:57:00,63.2,51.0,30.38,East,98,6.0,19.0,64,0.00,,,0.01,weatherlink.com 1.10,2013-04-21 16:57:00,
2013-04-21 13:12:00,63.2,51.0,30.38,SSW,200,4.0,21.0,64,0.00,,,0.01,weatherlink.com 1.10,2013-04-21 17:12:00,
2013-04-21 13:27:00,63.2,52.0,30.38,ESE,105,10.0,19.0,66,0.00,,,0.01,weatherlink.com 1.10,2013-04-21 17:27:00,
2013-04-21 13:42:00,63.2,50.0,30.38,ESE,110,23.0,24.0,63,0.00,,,0.01,weatherlink.com 1.10,2013-04-21 17:42:00,
2013-04-21 13:57:00,63.5,51.0,30.37,North,5,22.0,22.0,64,0.00,,,0.01,weatherlink.com 1.10,2013-04-21 17:57:00,
2013-04-21 14:12:00,63.4,50.0,30.37,NNE,23,5.0,19.0,62,0.00,,,0.01,weatherlink.com 1.10,2013-04-21 18:12:00,
2013-04-21 14:27:00,63.4,50.0,30.37,ESE,109,4.0,15.0,62,0.00,,,0.01,weatherlink.com 1.10,2013-04-21 18:27:00,
2013-04-21 14:43:00,63.2,51.0,30.37,East,86,8.0,23.0,64,0.00,,,0.01,weatherlink.com 1.10,2013-04-21 18:43:00,
2013-04-21 14:57:00,63.0,51.0,30.36,ENE,75,18.0,20.0,64,0.00,,,0.01,weatherlink.com 1.10,2013-04-21 18:57:00,
2013-04-21 15:12:00,62.2,50.0,30.36,East,90,12.0,23.0,65,0.00,,,0.01,weatherlink.com 1.10,2013-04-21 19:12:00,
2013-04-21 15:27:00,62.1,51.0,30.36,ESE,105,9.0,17.0,66,0.00,,,0.01,weatherlink.com 1.10,2013-04-21 19:27:00,
2013-04-21 15:42:00,62.0,51.0,30.36,ESE,111,8.0,21.0,67,0.00,,,0.01,weatherlink.com 1.10,2013-04-21 19:42:00,
2013-04-21 15:57:00,62.2,51.0,30.36,ENE,64,7.0,25.0,67,0.00,,,0.01,weatherlink.com 1.10,2013-04-21 19:57:00,
2013-04-21 16:12:00,62.4,50.0,30.36,East,84,7.0,20.0,65,0.00,,,0.01,weatherlink.com 1.10,2013-04-21 20:12:00,
2013-04-21 16:27:00,61.6,48.0,30.35,ENE,61,15.0,29.0,62,0.00,,,0.01,weatherlink.com 1.10,2013-04-21 20:27:00,
2013-04-21 16:42:00,61.6,49.0,30.35,East,82,10.0,22.0,63,0.00,,,0.01,weatherlink.com 1.10,2013-04-21 20:42:00,
2013-04-21 16:57:00,61.3,48.0,30.34,East,83,4.0,26.0,61,0.00,,,0.01,weatherlink.com 1.10,2013-04-21 20:57:00,
2013-04-21 17:12:00,61.5,48.0,30.34,ENE,72,10.0,15.0,62,0.00,,,0.01,weatherlink.com 1.10,2013-04-21 21:12:00,
2013-04-21 17:27:00,60.9,46.0,30.34,NNW,340,2.0,20.0,58,0.00,,,0.01,weatherlink.com 1.10,2013-04-21 21:27:00,
2013-04-21 17:42:00,60.5,47.0,30.34,East,98,15.0,25.0,61,0.00,,,0.01,weatherlink.com 1.10,2013-04-21 21:42:00,
2013-04-21 17:57:00,60.8,45.0,30.33,ENE,60,13.0,23.0,57,0.00,,,0.01,weatherlink.com 1.10,2013-04-21 21:57:00,
2013-04-21 18:12:00,59.6,47.0,30.34,ENE,70,10.0,24.0,63,0.00,,,0.01,weatherlink.com 1.10,2013-04-21 22:12:00,
2013-04-21 18:27:00,59.4,48.0,30.34,ESE,118,4.0,17.0,65,0.00,,,0.01,weatherlink.com 1.10,2013-04-21 22:27:00,
2013-04-21 18:42:00,59.1,46.0,30.34,East,92,6.0,18.0,62,0.00,,,0.01,weatherlink.com 1.10,2013-04-21 22:42:00,
2013-04-21 18:57:00,59.0,46.0,30.33,SE,138,5.0,22.0,62,0.00,,,0.01,weatherlink.com 1.10,2013-04-21 22:57:00,
2013-04-21 19:12:00,58.8,46.0,30.34,East,80,6.0,21.0,63,0.00,,,0.01,weatherlink.com 1.10,2013-04-21 23:12:00,
2013-04-21 19:27:00,58.6,46.0,30.35,ENE,74,6.0,20.0,64,0.00,,,0.01,weatherlink.com 1.10,2013-04-21 23:27:00,
2013-04-21 19:42:00,58.4,47.0,30.36,North,9,9.0,22.0,67,0.00,,,0.01,weatherlink.com 1.10,2013-04-21 23:42:00,
2013-04-21 19:57:00,58.2,48.0,30.36,ENE,77,5.0,19.0,68,0.00,,,0.01,weatherlink.com 1.10,2013-04-21 23:57:00,
2013-04-21 20:12:00,58.2,48.0,30.37,ESE,105,6.0,20.0,69,0.00,,,0.01,weatherlink.com 1.10,2013-04-22 00:12:00,
2013-04-21 20:28:00,58.0,48.0,30.37,East,99,3.0,18.0,69,0.00,,,0.01,weatherlink.com 1.10,2013-04-22 00:28:00,
2013-04-21 20:43:00,58.0,48.0,30.38,NE,44,4.0,15.0,70,0.00,,,0.01,weatherlink.com 1.10,2013-04-22 00:43:00,
2013-04-21 20:58:00,57.8,47.0,30.38,NE,40,1.0,19.0,68,0.00,,,0.01,weatherlink.com 1.10,2013-04-22 00:58:00,
2013-04-21 21:13:00,57.6,47.0,30.37,East,90,12.0,22.0,67,0.00,,,0.01,weatherlink.com 1.10,2013-04-22 01:13:00,
2013-04-21 21:28:00,57.4,46.0,30.38,East,86,3.0,19.0,66,0.00,,,0.01,weatherlink.com 1.10,2013-04-22 01:28:00,
2013-04-21 21:43:00,57.5,45.0,30.38,NE,55,5.0,14.0,64,0.00,,,0.01,weatherlink.com 1.10,2013-04-22 01:43:00,
2013-04-21 21:58:00,57.5,46.0,30.39,East,79,9.0,16.0,66,0.00,,,0.01,weatherlink.com 1.10,2013-04-22 01:58:00,
2013-04-21 22:13:00,57.4,46.0,30.38,ENE,76,11.0,15.0,66,0.00,,,0.01,weatherlink.com 1.10,2013-04-22 02:13:00,
2013-04-21 22:28:00,57.1,45.0,30.36,ENE,77,7.0,15.0,65,0.00,,,0.01,weatherlink.com 1.10,2013-04-22 02:28:00,
2013-04-21 22:43:00,57.0,46.0,30.36,ENE,60,4.0,21.0,66,0.00,,,0.01,weatherlink.com 1.10,2013-04-22 02:43:00,
2013-04-21 22:58:00,56.9,46.0,30.37,ENE,65,9.0,17.0,67,0.00,,,0.01,weatherlink.com 1.10,2013-04-22 02:58:00,
2013-04-21 23:13:00,56.9,47.0,30.38,ENE,66,5.0,15.0,69,0.00,,,0.01,weatherlink.com 1.10,2013-04-22 03:13:00,
2013-04-21 23:28:00,56.7,47.0,30.38,East,84,8.0,14.0,69,0.00,,,0.01,weatherlink.com 1.10,2013-04-22 03:28:00,
2013-04-21 23:43:00,56.5,46.0,30.36,East,98,9.0,17.0,68,0.00,,,0.01,weatherlink.com 1.10,2013-04-22 03:43:00,
2013-04-21 23:58:00,56.0,46.0,30.36,ESE,105,4.0,9.0,70,0.00,,,0.01,weatherlink.com 1.10,2013-04-22 03:58:00,